createdAt,value
2018-12-14T00:00:05.644Z,1.07
2018-12-14T00:02:32.822Z,0.99
2018-12-14T00:05:00.087Z,1.05
2018-12-14T00:07:27.458Z,1.13
2018-12-14T00:09:54.582Z,1.09
2018-12-14T00:12:21.703Z,1.07
2018-12-14T00:14:48.887Z,1.08
2018-12-14T00:17:16.011Z,1.03
2018-12-14T00:19:43.142Z,0.96
2018-12-14T00:22:10.326Z,0.96
2018-12-14T00:24:37.423Z,0.96
2018-12-14T00:27:04.795Z,1.04
2018-12-14T00:29:31.966Z,0.88
2018-12-14T00:31:59.098Z,0.92
2018-12-14T00:34:26.207Z,0.98
2018-12-14T00:36:53.441Z,0.90
2018-12-14T00:39:20.551Z,1.04
2018-12-14T00:41:51.917Z,1.00
2018-12-14T00:44:16.910Z,1.05
2018-12-14T00:46:44.047Z,1.07
2018-12-14T00:49:11.306Z,1.08
2018-12-14T00:51:38.459Z,1.08
2018-12-14T00:54:05.570Z,1.03
2018-12-14T00:56:32.663Z,1.03
2018-12-14T00:59:00.379Z,0.99
2018-12-14T01:01:27.495Z,0.84
2018-12-14T01:03:54.686Z,0.78
2018-12-14T01:06:21.830Z,0.83
2018-12-14T01:08:48.918Z,0.87
2018-12-14T01:11:16.011Z,0.89
2018-12-14T01:13:43.283Z,0.79
2018-12-14T01:16:10.366Z,0.85
2018-12-14T01:18:37.592Z,0.83
2018-12-14T01:21:04.733Z,0.92
2018-12-14T01:23:31.813Z,0.89
2018-12-14T01:25:58.905Z,0.82
2018-12-14T01:28:26.136Z,0.80
2018-12-14T01:30:53.254Z,0.88
2018-12-14T01:33:20.385Z,0.90
2018-12-14T01:35:47.587Z,0.92
2018-12-14T01:38:14.682Z,0.79
2018-12-14T01:40:41.898Z,0.87
2018-12-14T01:43:09.111Z,0.83
2018-12-14T01:45:36.239Z,0.75
2018-12-14T01:48:03.470Z,0.86
2018-12-14T01:50:30.645Z,0.82
2018-12-14T01:52:57.760Z,0.76
2018-12-14T01:55:24.858Z,0.79
2018-12-14T01:57:52.137Z,0.74
2018-12-14T02:00:19.255Z,0.72
2018-12-14T02:02:46.372Z,0.72
2018-12-14T02:05:13.604Z,0.72
2018-12-14T02:07:40.721Z,0.68
2018-12-14T02:10:07.938Z,0.65
2018-12-14T02:12:35.170Z,0.63
2018-12-14T02:15:02.318Z,0.68
2018-12-14T02:17:29.455Z,0.70
2018-12-14T02:19:56.760Z,0.59
2018-12-14T02:22:23.875Z,0.59
2018-12-14T02:24:50.996Z,0.63
2018-12-14T02:27:18.159Z,0.48
2018-12-14T02:29:45.340Z,0.51
2018-12-14T02:32:12.571Z,0.55
2018-12-14T02:34:40.138Z,0.50
2018-12-14T02:37:07.238Z,0.47
2018-12-14T02:39:34.359Z,0.40
2018-12-14T02:42:01.583Z,0.48
2018-12-14T02:44:28.774Z,0.43
2018-12-14T02:46:55.996Z,0.30
2018-12-14T02:49:23.159Z,0.36
2018-12-14T02:51:50.290Z,0.32
2018-12-14T02:54:17.510Z,0.30
2018-12-14T02:56:44.815Z,0.30
2018-12-14T02:59:11.938Z,0.18
2018-12-14T03:01:40.117Z,0.20
2018-12-14T03:04:07.384Z,0.12
2018-12-14T03:06:34.498Z,0.04
2018-12-14T03:09:01.611Z,0.06
2018-12-14T03:11:28.830Z,0.03
2018-12-14T03:13:55.937Z,0.14
2018-12-14T03:16:23.070Z,-0.07
2018-12-14T03:18:50.302Z,-0.09
2018-12-14T03:21:17.524Z,0.00
2018-12-14T03:23:44.621Z,-0.06
2018-12-14T03:26:11.980Z,-0.14
2018-12-14T03:28:39.107Z,-0.14
2018-12-14T03:31:06.290Z,-0.16
2018-12-14T03:33:33.687Z,-0.31
2018-12-14T03:36:00.782Z,-0.24
2018-12-14T03:38:27.885Z,-0.31
2018-12-14T03:40:55.039Z,-0.29
2018-12-14T03:43:22.138Z,-0.43
2018-12-14T03:45:49.242Z,-0.41
2018-12-14T03:48:16.492Z,-0.46
2018-12-14T03:50:43.587Z,-0.46
2018-12-14T03:53:10.755Z,-0.46
2018-12-14T03:55:37.976Z,-0.53
2018-12-14T03:58:05.084Z,-0.63
2018-12-14T04:00:32.316Z,-0.69
2018-12-14T04:02:59.818Z,-0.72
2018-12-14T04:05:27.569Z,-0.71
2018-12-14T04:07:54.674Z,-0.69
2018-12-14T04:10:21.931Z,-0.81
2018-12-14T04:12:49.049Z,-0.73
2018-12-14T04:15:16.384Z,-0.77
2018-12-14T04:17:43.552Z,-0.80
2018-12-14T04:20:10.683Z,-0.91
2018-12-14T04:22:37.920Z,-0.88
2018-12-14T04:25:05.416Z,-0.85
2018-12-14T04:27:32.629Z,-0.94
2018-12-14T04:29:59.720Z,-0.84
2018-12-14T04:32:26.955Z,-0.87
2018-12-14T04:34:54.079Z,-0.90
2018-12-14T04:37:21.218Z,-0.90
2018-12-14T04:39:48.422Z,-0.91
2018-12-14T04:42:15.551Z,-0.88
2018-12-14T04:44:42.715Z,-0.90
2018-12-14T04:47:10.299Z,-1.01
2018-12-14T04:49:37.731Z,-0.86
2018-12-14T04:52:09.477Z,-0.93
2018-12-14T04:54:37.806Z,-0.95
2018-12-14T04:57:04.919Z,-0.89
2018-12-14T04:59:32.115Z,-0.82
2018-12-14T05:01:59.239Z,-0.78
2018-12-14T05:04:26.382Z,-0.69
2018-12-14T05:06:53.631Z,-0.67
2018-12-14T05:09:20.803Z,-0.63
2018-12-14T05:11:47.930Z,-0.60
2018-12-14T05:14:16.117Z,-0.74
2018-12-14T05:16:43.252Z,-0.67
2018-12-14T05:19:10.371Z,-0.63
2018-12-14T05:21:37.915Z,-0.62
2018-12-14T05:24:05.027Z,-0.59
2018-12-14T05:26:32.159Z,-0.54
2018-12-14T05:28:59.337Z,-0.54
2018-12-14T05:31:26.514Z,-0.47
2018-12-14T05:33:53.805Z,-0.44
2018-12-14T05:36:22.188Z,-0.48
2018-12-14T05:38:49.478Z,-0.40
2018-12-14T05:41:16.663Z,-0.35
2018-12-14T05:43:43.916Z,-0.31
2018-12-14T05:46:11.051Z,-0.20
2018-12-14T05:48:38.182Z,-0.16
2018-12-14T05:51:05.491Z,-0.08
2018-12-14T05:53:34.486Z,-0.02
2018-12-14T05:56:04.457Z,0.07
2018-12-14T05:58:32.052Z,0.01
2018-12-14T06:00:59.359Z,0.11
2018-12-14T06:03:26.490Z,0.21
2018-12-14T06:05:53.727Z,0.18
2018-12-14T06:08:20.824Z,0.16
2018-12-14T06:10:47.934Z,0.16
2018-12-14T06:13:15.204Z,0.17
2018-12-14T06:15:42.426Z,0.10
2018-12-14T06:18:09.527Z,0.05
2018-12-14T06:20:36.712Z,0.07
2018-12-14T06:23:03.807Z,0.06
2018-12-14T06:25:31.120Z,0.14
2018-12-14T06:27:58.312Z,0.21
2018-12-14T06:30:25.411Z,0.17
2018-12-14T06:32:52.673Z,0.19
2018-12-14T06:35:20.598Z,0.04
2018-12-14T06:37:47.917Z,0.09
2018-12-14T06:40:15.062Z,0.21
2018-12-14T06:42:42.292Z,0.14
2018-12-14T06:45:09.948Z,0.13
2018-12-14T06:47:37.216Z,0.13
2018-12-14T06:50:04.585Z,0.19
2018-12-14T06:52:31.683Z,0.33
2018-12-14T06:54:58.829Z,0.34
2018-12-14T06:57:26.007Z,0.38
2018-12-14T06:59:53.133Z,0.40
2018-12-14T07:02:20.263Z,0.45
2018-12-14T07:04:47.484Z,0.32
2018-12-14T07:07:14.596Z,0.34
2018-12-14T07:09:41.698Z,0.38
2018-12-14T07:12:08.882Z,0.28
2018-12-14T07:14:36.131Z,0.21
2018-12-14T07:17:03.263Z,0.23
2018-12-14T07:19:30.438Z,0.27
2018-12-14T07:21:57.562Z,0.31
2018-12-14T07:24:24.683Z,0.26
2018-12-14T07:26:53.100Z,0.21
2018-12-14T07:29:20.226Z,0.24
2018-12-14T07:31:47.471Z,0.29
2018-12-14T07:34:14.651Z,0.30
2018-12-14T07:36:42.572Z,0.40
2018-12-14T07:39:09.692Z,0.36
2018-12-14T07:41:36.940Z,0.31
2018-12-14T07:44:04.168Z,0.45
2018-12-14T07:46:31.266Z,0.42
2018-12-14T07:48:58.577Z,0.53
2018-12-14T07:51:25.713Z,0.54
2018-12-14T07:53:52.819Z,0.53
2018-12-14T07:56:19.977Z,0.55
2018-12-14T07:58:47.288Z,0.57
2018-12-14T08:01:14.631Z,0.69
2018-12-14T08:03:41.905Z,0.60
2018-12-14T08:06:09.006Z,0.55
2018-12-14T08:08:36.098Z,0.57
2018-12-14T08:11:03.335Z,0.52
2018-12-14T08:13:34.834Z,0.48
2018-12-14T08:15:59.650Z,0.50
2018-12-14T08:18:26.914Z,0.60
2018-12-14T08:20:54.104Z,0.56
2018-12-14T08:23:21.256Z,0.63
2018-12-14T08:25:48.529Z,0.64
2018-12-14T08:28:15.658Z,0.62
2018-12-14T08:30:42.771Z,0.67
2018-12-14T08:33:09.956Z,0.59
2018-12-14T08:35:37.174Z,0.56
2018-12-14T08:38:04.350Z,0.52
2018-12-14T08:40:31.575Z,0.54
2018-12-14T08:42:58.667Z,0.65
2018-12-14T08:45:25.907Z,0.55
2018-12-14T08:47:53.474Z,0.47
2018-12-14T08:50:20.567Z,0.53
2018-12-14T08:52:47.679Z,0.58
2018-12-14T08:55:14.903Z,0.50
2018-12-14T08:57:41.997Z,0.56
2018-12-14T09:00:09.372Z,0.73
2018-12-14T09:02:36.532Z,0.62
2018-12-14T09:05:03.848Z,0.69
2018-12-14T09:07:30.942Z,0.78
2018-12-14T09:09:58.105Z,0.81
2018-12-14T09:12:25.239Z,0.79
2018-12-14T09:14:52.358Z,0.91
2018-12-14T09:17:19.601Z,0.79
2018-12-14T09:19:47.229Z,0.75
2018-12-14T09:22:14.351Z,0.64
2018-12-14T09:24:41.528Z,0.74
2018-12-14T09:27:08.609Z,0.74
2018-12-14T09:29:35.704Z,0.90
2018-12-14T09:32:03.172Z,0.89
2018-12-14T09:34:30.257Z,0.95
2018-12-14T09:36:57.360Z,0.91
2018-12-14T09:39:24.661Z,0.84
2018-12-14T09:41:51.763Z,0.89
2018-12-14T09:44:19.055Z,0.94
2018-12-14T09:46:46.213Z,1.03
2018-12-14T09:49:13.343Z,1.07
2018-12-14T09:51:40.454Z,1.06
2018-12-14T09:54:07.652Z,1.08
2018-12-14T09:56:34.948Z,1.01
2018-12-14T09:59:02.080Z,0.98
2018-12-14T10:01:29.230Z,1.03
2018-12-14T10:03:56.634Z,1.03
2018-12-14T10:06:24.003Z,0.93
2018-12-14T10:08:51.207Z,0.92
2018-12-14T10:11:18.523Z,0.95
2018-12-14T10:13:45.730Z,0.93
2018-12-14T10:16:13.137Z,1.08
2018-12-14T10:18:40.637Z,1.13
2018-12-14T10:21:08.194Z,1.22
2018-12-14T10:23:35.479Z,1.36
2018-12-14T10:26:02.675Z,1.17
2018-12-14T10:28:30.065Z,1.20
2018-12-14T10:30:57.554Z,1.25
2018-12-14T10:33:24.686Z,1.23
2018-12-14T10:35:51.943Z,1.22
2018-12-14T10:38:19.312Z,1.17
2018-12-14T10:40:46.526Z,1.21
2018-12-14T10:43:13.729Z,1.21
2018-12-14T10:45:41.211Z,1.23
2018-12-14T10:48:08.435Z,1.17
2018-12-14T10:50:39.745Z,1.12
2018-12-14T10:53:09.359Z,1.10
2018-12-14T10:55:36.556Z,1.23
2018-12-14T10:58:04.044Z,1.25
2018-12-14T11:00:37.227Z,1.41
2018-12-14T11:03:04.402Z,1.28
2018-12-14T11:05:31.504Z,1.17
2018-12-14T11:07:58.750Z,1.20
2018-12-14T11:10:25.875Z,1.23
2018-12-14T11:12:53.006Z,1.30
2018-12-14T11:15:20.154Z,1.39
2018-12-14T11:17:47.252Z,1.24
2018-12-14T11:20:14.379Z,1.41
2018-12-14T11:22:41.535Z,1.35
2018-12-14T11:25:08.768Z,1.22
2018-12-14T11:27:35.998Z,1.32
2018-12-14T11:30:03.452Z,1.50
2018-12-14T11:32:30.577Z,1.53
2018-12-14T11:34:57.774Z,1.41
2018-12-14T11:37:24.992Z,1.40
2018-12-14T11:39:52.519Z,1.37
2018-12-14T11:42:19.871Z,1.17
2018-12-14T11:44:47.475Z,1.24
2018-12-14T11:47:18.128Z,1.29
2018-12-14T11:49:44.867Z,1.25
2018-12-14T11:52:13.328Z,1.20
2018-12-14T11:54:42.094Z,1.19
2018-12-14T11:57:09.210Z,1.23
2018-12-14T11:59:36.371Z,1.32
2018-12-14T12:02:03.503Z,1.21
2018-12-14T12:04:30.628Z,1.13
2018-12-14T12:06:57.787Z,1.19
2018-12-14T12:09:25.021Z,1.36
2018-12-14T12:11:52.128Z,1.25
2018-12-14T12:14:19.330Z,1.15
2018-12-14T12:16:46.459Z,1.13
2018-12-14T12:19:13.558Z,1.11
2018-12-14T12:21:41.109Z,1.18
2018-12-14T12:24:08.245Z,1.22
2018-12-14T12:26:35.354Z,1.23
2018-12-14T12:29:02.547Z,1.13
2018-12-14T12:31:29.766Z,1.20
2018-12-14T12:33:56.893Z,1.28
2018-12-14T12:36:24.062Z,1.25
2018-12-14T12:38:51.192Z,1.25
2018-12-14T12:41:18.312Z,1.29
2018-12-14T12:43:45.648Z,1.11
2018-12-14T12:46:12.735Z,1.22
2018-12-14T12:48:40.160Z,1.18
2018-12-14T12:51:07.307Z,1.12
2018-12-14T12:53:34.580Z,1.19
2018-12-14T12:56:01.705Z,1.25
2018-12-14T12:58:28.873Z,1.22
2018-12-14T13:00:56.159Z,1.18
2018-12-14T13:03:23.264Z,1.28
2018-12-14T13:05:50.415Z,1.27
2018-12-14T13:08:17.599Z,1.35
2018-12-14T13:10:44.710Z,1.30
2018-12-14T13:13:12.036Z,1.24
2018-12-14T13:15:39.130Z,1.30
2018-12-14T13:18:06.244Z,1.26
2018-12-14T13:20:33.412Z,1.24
2018-12-14T13:23:00.623Z,1.23
2018-12-14T13:25:27.788Z,1.19
2018-12-14T13:27:54.967Z,1.24
2018-12-14T13:30:22.180Z,1.31
2018-12-14T13:32:49.276Z,1.27
2018-12-14T13:35:16.456Z,1.28
2018-12-14T13:37:43.587Z,1.21
2018-12-14T13:40:10.812Z,1.21
2018-12-14T13:42:37.975Z,1.24
2018-12-14T13:45:05.401Z,1.35
2018-12-14T13:47:32.566Z,1.29
2018-12-14T13:49:59.737Z,1.18
2018-12-14T13:52:26.871Z,1.26
2018-12-14T13:54:54.045Z,1.32
2018-12-14T13:57:21.223Z,1.30
2018-12-14T13:59:48.342Z,1.22
2018-12-14T14:02:15.450Z,1.20
2018-12-14T14:04:42.654Z,1.22
2018-12-14T14:07:09.783Z,1.41
2018-12-14T14:09:36.899Z,1.51
2018-12-14T14:12:04.190Z,1.40
2018-12-14T14:14:31.324Z,1.40
2018-12-14T14:16:58.639Z,1.46
2018-12-14T14:19:26.588Z,1.43
2018-12-14T14:21:53.688Z,1.32
2018-12-14T14:24:20.880Z,1.32
2018-12-14T14:26:48.048Z,1.25
2018-12-14T14:29:15.138Z,1.36
2018-12-14T14:31:42.229Z,1.30
2018-12-14T14:34:09.391Z,1.34
2018-12-14T14:36:36.504Z,1.36
2018-12-14T14:39:06.177Z,1.39
2018-12-14T14:41:34.149Z,1.47
2018-12-14T14:44:01.286Z,1.30
2018-12-14T14:46:28.490Z,1.33
2018-12-14T14:48:55.622Z,1.46
2018-12-14T14:51:23.434Z,1.36
2018-12-14T14:53:50.519Z,1.42
2018-12-14T14:56:17.667Z,1.49
2018-12-14T14:58:45.071Z,1.33
2018-12-14T15:01:12.167Z,1.32
2018-12-14T15:03:39.390Z,1.31
2018-12-14T15:06:06.485Z,1.21
2018-12-14T15:08:33.565Z,1.33
2018-12-14T15:11:00.698Z,1.40
2018-12-14T15:13:29.711Z,1.30
2018-12-14T15:15:57.019Z,1.29
2018-12-14T15:18:24.311Z,1.23
2018-12-14T15:20:51.466Z,1.27
2018-12-14T15:23:18.769Z,1.28
2018-12-14T15:25:46.079Z,1.30
2018-12-14T15:28:13.177Z,1.32
2018-12-14T15:30:40.312Z,1.28
2018-12-14T15:33:07.473Z,1.29
2018-12-14T15:35:34.591Z,1.21
2018-12-14T15:38:01.711Z,1.21
2018-12-14T15:40:28.841Z,1.21
2018-12-14T15:42:55.923Z,1.18
2018-12-14T15:45:23.020Z,1.18
2018-12-14T15:47:50.235Z,1.09
2018-12-14T15:50:17.343Z,1.25
2018-12-14T15:52:44.451Z,1.16
2018-12-14T15:55:11.766Z,1.13
2018-12-14T15:57:38.892Z,1.06
2018-12-14T16:00:06.324Z,1.19
2018-12-14T16:02:33.571Z,1.15
2018-12-14T16:05:00.738Z,1.28
2018-12-14T16:07:27.950Z,1.15
2018-12-14T16:09:55.126Z,1.10
2018-12-14T16:12:22.240Z,1.20
2018-12-14T16:14:49.370Z,1.09
2018-12-14T16:17:16.529Z,1.04
2018-12-14T16:19:43.697Z,1.06
2018-12-14T16:22:10.879Z,1.07
2018-12-14T16:24:38.103Z,1.00
2018-12-14T16:27:05.327Z,1.19
2018-12-14T16:29:33.017Z,1.09
2018-12-14T16:32:00.283Z,0.97
2018-12-14T16:34:27.382Z,0.97
2018-12-14T16:36:54.496Z,0.90
2018-12-14T16:39:21.783Z,0.91
2018-12-14T16:41:48.895Z,1.00
2018-12-14T16:44:16.027Z,0.93
2018-12-14T16:46:43.223Z,1.00
2018-12-14T16:49:10.415Z,0.98
2018-12-14T16:51:37.554Z,0.96
2018-12-14T16:54:06.470Z,1.08
2018-12-14T16:56:33.623Z,1.15
2018-12-14T16:59:01.024Z,0.92
2018-12-14T17:01:28.351Z,0.91
2018-12-14T17:03:55.545Z,1.01
2018-12-14T17:06:22.929Z,1.11
2018-12-14T17:08:50.114Z,0.98
2018-12-14T17:11:17.247Z,0.97
2018-12-14T17:13:44.391Z,0.93
2018-12-14T17:16:11.555Z,0.94
2018-12-14T17:18:38.678Z,0.88
2018-12-14T17:21:05.847Z,0.88
2018-12-14T17:23:34.314Z,0.96
2018-12-14T17:26:01.688Z,0.91
2018-12-14T17:28:28.898Z,1.04
2018-12-14T17:30:56.051Z,1.12
2018-12-14T17:33:23.176Z,1.08
2018-12-14T17:35:50.269Z,1.02
2018-12-14T17:38:17.448Z,1.04
2018-12-14T17:40:44.732Z,0.94
2018-12-14T17:43:11.952Z,1.00
2018-12-14T17:45:39.879Z,0.91
2018-12-14T17:48:07.431Z,1.02
2018-12-14T17:50:34.595Z,0.96
2018-12-14T17:53:02.846Z,0.91
2018-12-14T17:55:30.004Z,0.91
2018-12-14T17:57:57.193Z,0.82
2018-12-14T18:00:25.559Z,0.93
2018-12-14T18:02:52.664Z,0.90
2018-12-14T18:05:19.775Z,0.85
2018-12-14T18:07:46.943Z,0.88
2018-12-14T18:10:14.166Z,0.98
2018-12-14T18:12:41.303Z,0.90
2018-12-14T18:15:08.582Z,0.84
2018-12-14T18:17:36.025Z,0.87
2018-12-14T18:20:03.833Z,0.92
2018-12-14T18:22:31.556Z,0.83
2018-12-14T18:24:59.005Z,0.93
2018-12-14T18:27:26.262Z,0.75
2018-12-14T18:29:53.476Z,0.78
2018-12-14T18:32:20.687Z,0.76
2018-12-14T18:34:47.938Z,0.91
2018-12-14T18:37:15.187Z,1.01
2018-12-14T18:39:42.281Z,0.96
2018-12-14T18:42:09.391Z,0.93
2018-12-14T18:44:36.564Z,0.99
2018-12-14T18:47:03.792Z,1.05
2018-12-14T18:49:30.921Z,1.05
2018-12-14T18:51:59.250Z,1.17
2018-12-14T18:54:26.478Z,1.08
2018-12-14T18:56:53.595Z,1.12
2018-12-14T18:59:21.087Z,1.17
2018-12-14T19:01:48.311Z,1.21
2018-12-14T19:04:15.682Z,1.22
2018-12-14T19:06:42.863Z,1.11
2018-12-14T19:09:10.141Z,1.06
2018-12-14T19:11:37.378Z,0.99
2018-12-14T19:14:04.617Z,1.00
2018-12-14T19:16:31.835Z,0.99
2018-12-14T19:18:58.953Z,1.13
2018-12-14T19:21:26.252Z,1.08
2018-12-14T19:23:53.433Z,1.00
2018-12-14T19:26:20.607Z,1.01
2018-12-14T19:28:47.807Z,0.95
2018-12-14T19:31:15.057Z,1.10
2018-12-14T19:33:42.187Z,1.07
2018-12-14T19:36:09.367Z,1.03
2018-12-14T19:38:36.546Z,1.06
2018-12-14T19:41:03.752Z,1.13
2018-12-14T19:43:30.983Z,1.03
2018-12-14T19:45:58.166Z,1.03
2018-12-14T19:48:25.375Z,0.96
2018-12-14T19:50:52.583Z,1.04
2018-12-14T19:53:19.767Z,1.07
2018-12-14T19:55:47.004Z,0.97
2018-12-14T19:58:14.224Z,0.90
2018-12-14T20:00:41.442Z,0.93
2018-12-14T20:03:08.751Z,0.97
2018-12-14T20:05:35.976Z,0.93
2018-12-14T20:08:03.201Z,0.94
2018-12-14T20:10:30.354Z,1.00
2018-12-14T20:12:57.633Z,0.95
2018-12-14T20:15:24.837Z,0.90
2018-12-14T20:17:51.967Z,0.78
2018-12-14T20:20:19.272Z,0.76
2018-12-14T20:22:46.388Z,0.65
2018-12-14T20:25:13.512Z,0.88
2018-12-14T20:27:40.682Z,0.79
2018-12-14T20:30:08.048Z,0.74
2018-12-14T20:32:35.160Z,0.74
2018-12-14T20:35:02.571Z,0.86
2018-12-14T20:37:29.768Z,0.82
2018-12-14T20:39:57.009Z,0.80
2018-12-14T20:42:24.184Z,0.78
2018-12-14T20:44:51.315Z,0.93
2018-12-14T20:47:18.428Z,0.85
2018-12-14T20:49:45.602Z,0.79
2018-12-14T20:52:12.729Z,0.80
2018-12-14T20:54:39.928Z,0.74
2018-12-14T20:57:07.082Z,0.74
2018-12-14T20:59:34.573Z,0.85
2018-12-14T21:02:01.681Z,0.83
2018-12-14T21:04:29.044Z,0.70
2018-12-14T21:06:56.155Z,0.77
2018-12-14T21:09:23.276Z,0.80
2018-12-14T21:11:50.459Z,0.74
2018-12-14T21:14:17.698Z,0.70
2018-12-14T21:16:44.858Z,0.79
2018-12-14T21:19:12.031Z,0.66
2018-12-14T21:21:39.178Z,0.75
2018-12-14T21:24:06.327Z,0.78
2018-12-14T21:26:33.512Z,0.81
2018-12-14T21:29:00.615Z,0.72
2018-12-14T21:31:27.735Z,0.74
2018-12-14T21:33:54.908Z,0.77
2018-12-14T21:36:22.076Z,0.82
2018-12-14T21:38:49.175Z,0.67
2018-12-14T21:41:16.347Z,0.92
2018-12-14T21:43:43.465Z,0.81
2018-12-14T21:46:10.575Z,0.83
2018-12-14T21:48:37.847Z,0.87
2018-12-14T21:51:04.954Z,0.84
2018-12-14T21:53:32.057Z,0.66
2018-12-14T21:55:59.401Z,0.69
2018-12-14T21:58:26.518Z,0.83
2018-12-14T22:00:53.649Z,0.78
2018-12-14T22:03:20.932Z,0.67
2018-12-14T22:05:48.039Z,0.67
2018-12-14T22:08:15.688Z,0.67
2018-12-14T22:10:42.890Z,0.63
2018-12-14T22:13:10.046Z,0.63
2018-12-14T22:15:37.164Z,0.71
2018-12-14T22:18:04.495Z,0.57
2018-12-14T22:20:31.639Z,0.64
2018-12-14T22:22:58.750Z,0.71
2018-12-14T22:25:25.927Z,0.69
2018-12-14T22:27:53.056Z,0.60
2018-12-14T22:30:20.276Z,0.58
2018-12-14T22:32:47.586Z,0.59
2018-12-14T22:35:14.735Z,0.66
2018-12-14T22:37:41.846Z,0.63
2018-12-14T22:40:09.066Z,0.71
2018-12-14T22:42:36.215Z,0.71
2018-12-14T22:45:04.174Z,0.70
2018-12-14T22:47:31.402Z,0.56
2018-12-14T22:49:58.560Z,0.58
2018-12-14T22:52:25.780Z,0.49
2018-12-14T22:54:53.036Z,0.65
2018-12-14T22:57:20.283Z,0.46
2018-12-14T22:59:48.287Z,0.54
2018-12-14T23:02:15.600Z,0.53
2018-12-14T23:04:42.765Z,0.53
2018-12-14T23:07:09.862Z,0.43
2018-12-14T23:09:38.202Z,0.42
2018-12-14T23:12:05.386Z,0.42
2018-12-14T23:14:32.558Z,0.47
2018-12-14T23:16:59.772Z,0.35
2018-12-14T23:19:26.943Z,0.58
2018-12-14T23:21:54.162Z,0.67
2018-12-14T23:24:24.591Z,0.60
2018-12-14T23:26:51.796Z,0.48
2018-12-14T23:29:19.537Z,0.59
2018-12-14T23:31:46.862Z,0.59
2018-12-14T23:34:14.057Z,0.57
2018-12-14T23:36:41.257Z,0.61
2018-12-14T23:39:08.475Z,0.58
2018-12-14T23:41:35.607Z,0.59
2018-12-14T23:44:03.040Z,0.51
2018-12-14T23:46:30.273Z,0.41
2018-12-14T23:48:57.432Z,0.45
2018-12-14T23:51:24.604Z,0.48
2018-12-14T23:53:51.774Z,0.63
2018-12-14T23:56:18.935Z,0.56
2018-12-14T23:58:46.151Z,0.51
